Time;durP1;ratioP1;P1;durP2;ratioP2;P2;SDS_P1;SDS_P2;PMS_P1;PMS_P2;Temp;Humidity;BMP_temperature;BMP_pressure;BME280_temperature;BME280_humidity;BME280_pressure;Samples;Min_cycle;Max_cycle;Signal;HPM_P1;HPM_P2
2022/06/30 00:01:46;;;;;;;;;;;19.30;99.90;;;;;;5051662;28;19923;-74
2022/06/30 00:04:12;;;;;;;;;;;19.40;99.90;;;;;;5051026;28;19920;-74
2022/06/30 00:06:37;;;;;;;;;;;19.30;99.90;;;;;;5033343;28;19919;-72
2022/06/30 00:09:03;;;;;;;;;;;19.40;99.90;;;;;;5051202;28;19920;-72
2022/06/30 00:11:28;;;;;;;;;;;19.40;99.90;;;;;;5051194;28;19919;-73
2022/06/30 00:13:54;;;;;;;;;;;19.40;99.90;;;;;;5051101;28;19921;-73
2022/06/30 00:16:19;;;;;;;;;;;19.40;99.90;;;;;;5033124;28;20365;-73
2022/06/30 00:18:45;;;;;;;;;;;19.40;99.90;;;;;;5050977;28;19920;-73
2022/06/30 00:21:11;;;;;;;;;;;19.40;99.90;;;;;;5051158;28;20372;-73
2022/06/30 00:23:36;;;;;;;;;;;19.30;99.90;;;;;;5050891;28;19924;-73
2022/06/30 00:26:02;;;;;;;;;;;19.30;99.90;;;;;;5050931;28;20269;-73
2022/06/30 00:28:28;;;;;;;;;;;19.40;99.90;;;;;;5032975;28;19917;-73
2022/06/30 00:30:53;;;;;;;;;;;19.30;99.90;;;;;;5051126;28;19920;-73
2022/06/30 00:33:19;;;;;;;;;;;19.30;99.90;;;;;;5050876;28;19920;-73
2022/06/30 00:35:45;;;;;;;;;;;19.30;99.90;;;;;;5033227;28;19936;-73
2022/06/30 00:38:10;;;;;;;;;;;19.20;99.90;;;;;;5050823;28;20067;-73
2022/06/30 00:40:42;;;;;;;;;;;19.20;99.90;;;;;;5050850;28;20015;-73
2022/06/30 00:43:08;;;;;;;;;;;19.30;99.90;;;;;;5050890;28;19994;-73
2022/06/30 00:45:39;;;;;;;;;;;19.20;99.90;;;;;;5050861;28;19964;-72
2022/06/30 00:48:04;;;;;;;;;;;19.20;99.90;;;;;;5052511;28;20007;-73
2022/06/30 00:50:30;;;;;;;;;;;19.10;99.90;;;;;;5054647;28;20452;-73
2022/06/30 00:52:56;;;;;;;;;;;19.10;99.90;;;;;;5054595;28;19971;-73
2022/06/30 00:55:22;;;;;;;;;;;19.10;99.90;;;;;;5054348;28;20265;-73
2022/06/30 00:57:48;;;;;;;;;;;19.10;99.90;;;;;;5036540;28;19959;-73
2022/06/30 01:00:15;;;;;;;;;;;19.10;99.90;;;;;;5054443;28;19913;-73
2022/06/30 01:02:40;;;;;;;;;;;19.20;99.90;;;;;;5054235;28;19917;-73
2022/06/30 01:05:07;;;;;;;;;;;19.20;99.90;;;;;;5053982;28;20296;-73
2022/06/30 01:07:33;;;;;;;;;;;19.30;99.90;;;;;;5054203;28;19986;-73
2022/06/30 01:12:43;;;;;;;;;;;19.20;99.90;;;;;;5054455;28;19931;-73
2022/06/30 01:15:13;;;;;;;;;;;19.20;99.90;;;;;;5053758;28;20408;-73
2022/06/30 01:17:38;;;;;;;;;;;19.20;99.90;;;;;;5053984;28;20303;-73
2022/06/30 01:20:04;;;;;;;;;;;19.20;99.90;;;;;;5053940;28;19966;-73
2022/06/30 01:22:30;;;;;;;;;;;19.10;99.90;;;;;;5053826;28;19925;-73
2022/06/30 01:24:55;;;;;;;;;;;19.00;99.90;;;;;;5053824;28;20337;-73
2022/06/30 01:27:21;;;;;;;;;;;18.90;99.90;;;;;;5054153;28;19919;-73
2022/06/30 01:29:46;;;;;;;;;;;18.90;99.90;;;;;;5053942;28;19924;-72
2022/06/30 01:32:12;;;;;;;;;;;18.90;99.90;;;;;;5054064;28;19913;-73
2022/06/30 01:34:37;;;;;;;;;;;18.90;99.90;;;;;;5053776;28;19920;-73
2022/06/30 01:37:03;;;;;;;;;;;18.90;99.90;;;;;;5035389;28;20446;-73
2022/06/30 01:39:29;;;;;;;;;;;18.80;99.90;;;;;;5053421;28;19919;-73
2022/06/30 01:41:54;;;;;;;;;;;18.70;99.90;;;;;;5053798;28;19995;-73
2022/06/30 01:44:20;;;;;;;;;;;18.60;99.90;;;;;;5053233;28;19924;-73
2022/06/30 01:46:46;;;;;;;;;;;18.70;99.90;;;;;;5035619;28;20354;-73
2022/06/30 01:49:12;;;;;;;;;;;18.70;99.90;;;;;;5035343;28;20040;-72
2022/06/30 01:51:37;;;;;;;;;;;18.60;99.90;;;;;;5053651;28;20023;-72
2022/06/30 01:54:03;;;;;;;;;;;18.60;99.90;;;;;;5053264;28;20241;-72
2022/06/30 01:56:28;;;;;;;;;;;18.60;99.90;;;;;;5053464;28;19913;-72
2022/06/30 01:58:54;;;;;;;;;;;18.60;99.90;;;;;;5052720;28;20179;-73
2022/06/30 02:01:19;;;;;;;;;;;18.50;99.90;;;;;;5035261;28;19912;-73
2022/06/30 02:03:45;;;;;;;;;;;18.50;99.90;;;;;;5052925;28;20360;-73
2022/06/30 02:06:10;;;;;;;;;;;18.40;99.90;;;;;;5034983;28;19919;-73
2022/06/30 02:08:38;;;;;;;;;;;18.40;99.90;;;;;;5052871;28;20558;-73
2022/06/30 02:11:03;;;;;;;;;;;18.50;99.90;;;;;;5052874;28;20011;-73
2022/06/30 02:13:29;;;;;;;;;;;18.40;99.90;;;;;;5034902;28;19999;-73
2022/06/30 02:15:54;;;;;;;;;;;18.40;99.90;;;;;;5052812;28;19920;-73
2022/06/30 02:18:20;;;;;;;;;;;18.40;99.90;;;;;;5052694;28;19913;-73
2022/06/30 02:20:45;;;;;;;;;;;18.40;99.90;;;;;;5052774;28;20279;-73
2022/06/30 02:23:11;;;;;;;;;;;18.40;99.90;;;;;;5052686;28;19923;-73
2022/06/30 02:25:36;;;;;;;;;;;18.40;99.90;;;;;;5052455;28;19966;-73
2022/06/30 02:28:04;;;;;;;;;;;18.40;99.90;;;;;;5052550;28;19990;-73
2022/06/30 02:30:30;;;;;;;;;;;18.30;99.90;;;;;;5052452;28;19920;-73
2022/06/30 02:32:56;;;;;;;;;;;18.30;99.90;;;;;;5052396;28;19913;-73
2022/06/30 02:35:22;;;;;;;;;;;18.40;99.90;;;;;;5034352;28;19917;-73
2022/06/30 02:37:47;;;;;;;;;;;18.40;99.90;;;;;;5052335;28;20300;-73
2022/06/30 02:40:13;;;;;;;;;;;18.50;99.90;;;;;;5052312;28;20372;-73
2022/06/30 02:42:38;;;;;;;;;;;18.50;99.90;;;;;;5034317;28;19924;-73
2022/06/30 02:45:04;;;;;;;;;;;18.60;99.90;;;;;;5034448;28;20319;-73
2022/06/30 02:47:34;;;;;;;;;;;18.60;99.90;;;;;;5052333;28;20340;-73
2022/06/30 02:50:03;;;;;;;;;;;18.60;99.90;;;;;;5034325;28;20412;-73
2022/06/30 02:52:29;;;;;;;;;;;18.60;99.90;;;;;;5051997;28;19940;-73
2022/06/30 02:54:55;;;;;;;;;;;18.80;99.90;;;;;;5052251;28;19917;-73
2022/06/30 02:57:20;;;;;;;;;;;18.70;99.90;;;;;;5052522;28;20148;-73
2022/06/30 02:59:46;;;;;;;;;;;18.80;99.90;;;;;;5034111;28;19917;-73
2022/06/30 03:02:11;;;;;;;;;;;18.80;99.90;;;;;;5034125;28;19971;-73
2022/06/30 03:04:37;;;;;;;;;;;18.80;99.90;;;;;;5051958;28;19967;-73
2022/06/30 03:07:02;;;;;;;;;;;18.90;99.90;;;;;;5067249;28;19956;-73
2022/06/30 03:09:28;;;;;;;;;;;18.90;99.90;;;;;;5051799;28;19984;-73
2022/06/30 03:11:53;;;;;;;;;;;18.90;99.90;;;;;;5051527;28;20327;-73
2022/06/30 03:14:18;;;;;;;;;;;18.90;99.90;;;;;;5051655;28;19996;-73
2022/06/30 03:16:44;;;;;;;;;;;18.90;99.90;;;;;;5051473;28;20373;-73
2022/06/30 03:19:09;;;;;;;;;;;19.00;99.90;;;;;;5051531;28;20275;-73
2022/06/30 03:21:35;;;;;;;;;;;19.00;99.90;;;;;;5033784;28;19970;-73
2022/06/30 03:24:00;;;;;;;;;;;19.00;99.90;;;;;;5051840;28;19916;-73
2022/06/30 03:26:26;;;;;;;;;;;19.00;99.90;;;;;;5051754;28;19955;-73
2022/06/30 03:28:52;;;;;;;;;;;19.00;99.90;;;;;;5051397;28;19924;-73
2022/06/30 03:31:18;;;;;;;;;;;19.00;99.90;;;;;;5033498;28;20007;-73
2022/06/30 03:33:43;;;;;;;;;;;19.10;99.90;;;;;;5033617;28;20335;-73
2022/06/30 03:36:09;;;;;;;;;;;19.10;99.90;;;;;;5033229;28;19922;-73
2022/06/30 03:38:34;;;;;;;;;;;19.20;99.90;;;;;;5051466;28;19933;-73
2022/06/30 03:41:00;;;;;;;;;;;19.20;99.90;;;;;;5033693;28;20007;-73
2022/06/30 03:43:25;;;;;;;;;;;19.30;99.90;;;;;;5051277;28;19917;-72
2022/06/30 03:45:51;;;;;;;;;;;19.40;99.90;;;;;;5051363;28;19912;-73
2022/06/30 03:48:16;;;;;;;;;;;19.30;99.90;;;;;;5051306;28;20444;-73
2022/06/30 03:50:42;;;;;;;;;;;19.40;99.90;;;;;;5051509;28;20369;-73
2022/06/30 03:53:07;;;;;;;;;;;19.40;99.90;;;;;;5051326;28;19913;-73
2022/06/30 03:55:33;;;;;;;;;;;19.40;99.90;;;;;;5051399;28;19912;-72
2022/06/30 03:57:59;;;;;;;;;;;19.50;99.90;;;;;;5051446;28;19995;-72
2022/06/30 04:00:25;;;;;;;;;;;19.50;99.90;;;;;;5051450;28;20431;-73
2022/06/30 04:02:51;;;;;;;;;;;19.60;99.90;;;;;;5033099;28;19954;-73
2022/06/30 04:05:16;;;;;;;;;;;19.70;99.90;;;;;;5051095;28;19909;-72
2022/06/30 04:07:42;;;;;;;;;;;19.70;99.90;;;;;;5051051;28;19912;-72
2022/06/30 04:10:09;;;;;;;;;;;19.80;99.90;;;;;;5051127;28;19912;-73
2022/06/30 04:12:34;;;;;;;;;;;19.90;99.90;;;;;;5050975;28;19913;-72
2022/06/30 04:14:59;;;;;;;;;;;20.00;99.90;;;;;;5033254;28;20012;-72
2022/06/30 04:17:25;;;;;;;;;;;20.00;99.90;;;;;;5033124;28;19962;-72
2022/06/30 04:19:50;;;;;;;;;;;20.10;99.90;;;;;;5051044;28;19913;-72
2022/06/30 04:22:16;;;;;;;;;;;20.20;99.90;;;;;;5053194;28;20015;-72
2022/06/30 04:24:41;;;;;;;;;;;20.20;99.90;;;;;;5054844;28;20369;-72
2022/06/30 04:27:07;;;;;;;;;;;20.30;99.90;;;;;;5055223;28;19971;-72
2022/06/30 04:29:32;;;;;;;;;;;20.40;99.90;;;;;;5036954;28;20365;-73
2022/06/30 04:34:42;;;;;;;;;;;20.50;99.90;;;;;;5054961;28;19920;-72
2022/06/30 04:37:08;;;;;;;;;;;20.60;99.90;;;;;;5054868;28;19996;-72
2022/06/30 04:39:33;;;;;;;;;;;20.60;99.90;;;;;;5055059;28;19913;-72
2022/06/30 04:41:58;;;;;;;;;;;20.60;99.90;;;;;;5055011;28;20343;-72
2022/06/30 04:44:24;;;;;;;;;;;20.50;99.90;;;;;;5036435;28;19921;-72
2022/06/30 04:46:49;;;;;;;;;;;20.60;99.90;;;;;;5055159;28;19936;-72
2022/06/30 04:49:15;;;;;;;;;;;20.60;99.90;;;;;;5054325;28;19948;-72
2022/06/30 04:51:40;;;;;;;;;;;20.70;99.90;;;;;;5054969;28;19974;-72
2022/06/30 04:54:06;;;;;;;;;;;20.80;99.90;;;;;;5036452;28;19924;-72
2022/06/30 04:56:31;;;;;;;;;;;20.80;99.90;;;;;;5054843;28;20484;-73
2022/06/30 04:58:57;;;;;;;;;;;20.80;99.90;;;;;;5054177;28;19917;-73
2022/06/30 05:01:22;;;;;;;;;;;20.90;99.90;;;;;;5054602;28;19970;-73
2022/06/30 05:03:48;;;;;;;;;;;21.00;99.90;;;;;;5054479;28;20415;-73
2022/06/30 05:06:13;;;;;;;;;;;21.00;99.90;;;;;;5054610;28;19919;-73
2022/06/30 05:08:39;;;;;;;;;;;21.10;99.90;;;;;;5036439;28;19913;-73
2022/06/30 05:11:05;;;;;;;;;;;21.20;99.90;;;;;;5054340;28;19919;-73
2022/06/30 05:13:30;;;;;;;;;;;21.20;99.90;;;;;;5054107;28;19919;-73
2022/06/30 05:15:55;;;;;;;;;;;21.40;99.90;;;;;;5054276;28;19920;-73
2022/06/30 05:18:21;;;;;;;;;;;21.40;99.90;;;;;;5054136;28;20416;-73
2022/06/30 05:20:46;;;;;;;;;;;21.50;99.90;;;;;;5036424;28;19917;-73
2022/06/30 05:23:12;;;;;;;;;;;21.60;99.90;;;;;;5054182;28;20300;-73
2022/06/30 05:28:22;;;;;;;;;;;21.60;99.90;;;;;;5054448;28;19994;-73
2022/06/30 05:30:48;;;;;;;;;;;21.70;99.90;;;;;;5054161;28;19913;-73
2022/06/30 05:33:13;;;;;;;;;;;21.70;99.90;;;;;;5053171;28;19913;-73
2022/06/30 05:35:40;;;;;;;;;;;21.70;99.90;;;;;;5035774;28;20249;-73
2022/06/30 05:38:06;;;;;;;;;;;21.80;99.90;;;;;;5053439;28;19940;-73
2022/06/30 05:40:31;;;;;;;;;;;21.80;99.90;;;;;;5053848;28;19913;-73
2022/06/30 05:42:57;;;;;;;;;;;21.80;99.90;;;;;;5053345;28;20364;-73
2022/06/30 05:45:22;;;;;;;;;;;21.80;99.90;;;;;;5053143;28;19967;-73
2022/06/30 05:47:50;;;;;;;;;;;21.80;99.90;;;;;;5053332;28;19923;-73
2022/06/30 05:50:16;;;;;;;;;;;21.90;99.90;;;;;;5053393;28;19909;-73
2022/06/30 05:52:42;;;;;;;;;;;22.00;99.90;;;;;;5053512;28;20062;-73
2022/06/30 05:55:08;;;;;;;;;;;22.00;99.90;;;;;;5035052;28;19916;-73
2022/06/30 05:57:33;;;;;;;;;;;22.20;99.90;;;;;;5035535;28;19962;-73
2022/06/30 05:59:59;;;;;;;;;;;22.10;99.90;;;;;;5053027;28;20089;-73
2022/06/30 06:02:24;;;;;;;;;;;22.30;99.90;;;;;;5053415;28;19923;-73
2022/06/30 06:04:50;;;;;;;;;;;22.30;99.90;;;;;;5052796;28;20384;-74
2022/06/30 06:07:15;;;;;;;;;;;22.40;99.90;;;;;;5068923;28;19956;-73
2022/06/30 06:09:41;;;;;;;;;;;22.40;99.90;;;;;;5053010;28;19958;-74
2022/06/30 06:12:07;;;;;;;;;;;22.50;99.90;;;;;;5053271;28;19917;-73
2022/06/30 06:14:32;;;;;;;;;;;22.50;99.90;;;;;;5052707;28;19913;-73
2022/06/30 06:16:58;;;;;;;;;;;22.60;99.90;;;;;;5053273;28;19917;-74
2022/06/30 06:19:23;;;;;;;;;;;22.70;99.90;;;;;;5052465;28;19920;-74
2022/06/30 06:21:49;;;;;;;;;;;22.80;99.90;;;;;;5052906;28;19944;-74
2022/06/30 06:24:15;;;;;;;;;;;22.80;99.90;;;;;;5034606;28;20373;-74
2022/06/30 06:26:41;;;;;;;;;;;22.80;99.90;;;;;;5052945;28;20283;-74
2022/06/30 06:29:06;;;;;;;;;;;22.90;99.90;;;;;;5052451;28;20011;-74
2022/06/30 06:31:36;;;;;;;;;;;23.00;99.90;;;;;;5034710;28;19992;-73
2022/06/30 06:34:02;;;;;;;;;;;23.00;99.90;;;;;;5052432;28;19917;-73
2022/06/30 06:36:28;;;;;;;;;;;23.20;99.90;;;;;;5052333;28;19978;-74
2022/06/30 06:38:54;;;;;;;;;;;23.30;99.90;;;;;;5052537;28;19920;-73
2022/06/30 06:41:22;;;;;;;;;;;23.30;99.90;;;;;;5067743;28;20628;-74
2022/06/30 06:43:48;;;;;;;;;;;23.40;99.90;;;;;;5052027;28;19921;-73
2022/06/30 06:46:14;;;;;;;;;;;23.50;99.90;;;;;;5052518;28;19920;-73
2022/06/30 06:48:39;;;;;;;;;;;23.50;99.90;;;;;;5052310;28;19948;-73
2022/06/30 06:51:05;;;;;;;;;;;23.50;99.90;;;;;;5052299;28;19967;-73
2022/06/30 06:53:30;;;;;;;;;;;23.50;99.90;;;;;;5052358;28;19936;-74
2022/06/30 06:55:56;;;;;;;;;;;23.70;99.90;;;;;;5052193;28;19985;-73
2022/06/30 06:58:21;;;;;;;;;;;23.70;99.90;;;;;;5052105;28;19920;-73
2022/06/30 07:00:47;;;;;;;;;;;23.80;99.90;;;;;;5052239;28;19917;-73
2022/06/30 07:03:12;;;;;;;;;;;23.70;99.90;;;;;;5051911;28;19921;-73
2022/06/30 07:05:38;;;;;;;;;;;23.70;99.90;;;;;;5052007;28;20456;-73
2022/06/30 07:08:04;;;;;;;;;;;23.80;99.90;;;;;;5051966;28;20418;-73
2022/06/30 07:10:29;;;;;;;;;;;23.90;99.90;;;;;;5051827;28;19916;-73
2022/06/30 07:12:55;;;;;;;;;;;24.10;99.90;;;;;;5051722;28;20265;-73
2022/06/30 07:15:23;;;;;;;;;;;24.20;99.90;;;;;;5051603;28;19913;-73
2022/06/30 07:17:49;;;;;;;;;;;24.30;99.90;;;;;;5051752;28;20016;-73
2022/06/30 07:20:14;;;;;;;;;;;24.40;99.90;;;;;;5051121;28;20342;-72
2022/06/30 07:22:40;;;;;;;;;;;24.50;99.90;;;;;;5051461;28;20024;-66
2022/06/30 07:25:06;;;;;;;;;;;24.50;99.90;;;;;;5051183;28;20415;-66
2022/06/30 07:27:32;;;;;;;;;;;24.50;99.90;;;;;;5051655;28;20398;-66
2022/06/30 07:29:57;;;;;;;;;;;24.60;99.90;;;;;;5051360;28;19919;-65
2022/06/30 07:32:23;;;;;;;;;;;24.60;99.90;;;;;;5051833;28;19962;-65
2022/06/30 07:34:48;;;;;;;;;;;24.70;99.90;;;;;;5051421;28;19967;-65
2022/06/30 07:37:14;;;;;;;;;;;24.80;99.90;;;;;;5051169;28;19921;-65
2022/06/30 07:39:39;;;;;;;;;;;25.00;99.90;;;;;;5051360;28;19944;-66
2022/06/30 07:42:05;;;;;;;;;;;25.10;99.90;;;;;;5051800;28;20316;-65
2022/06/30 07:44:30;;;;;;;;;;;25.40;99.90;;;;;;5051313;28;19917;-65
2022/06/30 07:46:56;;;;;;;;;;;25.50;99.90;;;;;;5051523;28;19966;-65
2022/06/30 07:49:21;;;;;;;;;;;25.60;99.90;;;;;;5051401;28;19913;-66
2022/06/30 07:51:48;;;;;;;;;;;25.70;99.90;;;;;;5051351;28;19913;-65
2022/06/30 07:54:13;;;;;;;;;;;25.80;99.90;;;;;;5051339;28;19916;-65
2022/06/30 07:56:39;;;;;;;;;;;25.90;99.90;;;;;;5051160;28;19920;-64
2022/06/30 07:59:04;;;;;;;;;;;26.00;99.90;;;;;;5050929;28;20014;-65
2022/06/30 08:01:30;;;;;;;;;;;26.00;99.90;;;;;;5051301;28;19988;-65
2022/06/30 08:03:55;;;;;;;;;;;26.00;99.90;;;;;;5051236;28;20257;-65
2022/06/30 08:06:23;;;;;;;;;;;26.10;99.90;;;;;;5061770;28;20360;-65
2022/06/30 08:08:49;;;;;;;;;;;26.10;99.90;;;;;;5061303;28;19920;-65
2022/06/30 08:11:14;;;;;;;;;;;26.20;99.90;;;;;;5051318;28;19917;-65
2022/06/30 08:13:40;;;;;;;;;;;26.40;99.90;;;;;;5051230;28;20332;-65
2022/06/30 08:16:05;;;;;;;;;;;26.40;99.90;;;;;;5050599;28;19912;-66
2022/06/30 08:18:31;;;;;;;;;;;26.40;99.90;;;;;;5059395;28;19913;-68
2022/06/30 08:20:56;;;;;;;;;;;26.40;99.90;;;;;;5066763;28;19912;-65
2022/06/30 08:23:23;;;;;;;;;;;26.60;99.90;;;;;;5050937;28;19924;-64
2022/06/30 08:25:48;;;;;;;;;;;26.80;99.90;;;;;;5050730;28;19967;-65
2022/06/30 08:28:14;;;;;;;;;;;27.00;99.90;;;;;;5050697;28;19962;-65
2022/06/30 08:30:39;;;;;;;;;;;26.90;99.90;;;;;;5050705;28;20386;-65
2022/06/30 08:33:05;;;;;;;;;;;27.00;99.90;;;;;;5051032;28;19923;-65
2022/06/30 08:35:30;;;;;;;;;;;27.10;99.90;;;;;;5051278;28;19920;-65
2022/06/30 08:37:56;;;;;;;;;;;27.10;99.90;;;;;;5070461;28;20274;-65
2022/06/30 08:43:06;;;;;;;;;;;27.60;99.90;;;;;;5070952;28;19927;-65
2022/06/30 08:45:31;;;;;;;;;;;27.90;99.90;;;;;;5070925;28;19913;-65
2022/06/30 08:47:57;;;;;;;;;;;28.10;99.90;;;;;;5070792;28;19917;-65
2022/06/30 08:50:22;;;;;;;;;;;28.20;99.90;;;;;;5070776;28;19999;-65
2022/06/30 08:52:52;;;;;;;;;;;28.40;99.90;;;;;;5070465;28;19917;-65
2022/06/30 08:55:18;;;;;;;;;;;28.50;99.90;;;;;;5070510;28;19917;-65
2022/06/30 08:57:45;;;;;;;;;;;28.30;99.90;;;;;;5070666;28;19912;-65
2022/06/30 09:00:11;;;;;;;;;;;28.30;99.90;;;;;;5052696;28;19916;-65
2022/06/30 09:02:36;;;;;;;;;;;28.50;99.90;;;;;;5052344;28;19917;-65
2022/06/30 09:05:02;;;;;;;;;;;28.70;99.90;;;;;;5067293;28;19909;-66
2022/06/30 09:07:28;;;;;;;;;;;28.70;99.90;;;;;;5070707;28;19926;-65
2022/06/30 09:09:54;;;;;;;;;;;28.70;99.90;;;;;;5072926;28;19912;-65
2022/06/30 09:12:19;;;;;;;;;;;28.90;99.90;;;;;;5068714;28;19966;-65
2022/06/30 09:14:48;;;;;;;;;;;29.20;99.90;;;;;;5054172;28;19913;-65
2022/06/30 09:17:18;;;;;;;;;;;29.40;99.90;;;;;;5054284;28;19960;-65
2022/06/30 09:19:52;;;;;;;;;;;29.70;99.90;;;;;;5054218;28;19919;-66
2022/06/30 09:22:17;;;;;;;;;;;29.80;99.90;;;;;;5054118;28;19923;-65
2022/06/30 09:24:43;;;;;;;;;;;30.00;99.90;;;;;;5053711;28;19917;-65
2022/06/30 09:27:10;;;;;;;;;;;30.10;99.90;;;;;;5053961;28;19913;-65
2022/06/30 09:30:14;;;;;;;;;;;30.10;99.90;;;;;;5053950;28;20229;-65
2022/06/30 09:32:50;;;;;;;;;;;30.00;99.90;;;;;;5011416;28;19917;-65
2022/06/30 09:35:16;;;;;;;;;;;29.60;99.90;;;;;;5011181;28;19910;-65
2022/06/30 09:37:42;;;;;;;;;;;29.60;99.90;;;;;;5033358;28;19982;-65
2022/06/30 09:40:08;;;;;;;;;;;29.70;99.90;;;;;;5082277;28;19912;-65
2022/06/30 09:42:44;;;;;;;;;;;30.00;99.90;;;;;;5093596;28;19963;-65
2022/06/30 09:45:10;;;;;;;;;;;30.20;99.90;;;;;;5093388;28;20346;-65
2022/06/30 09:47:36;;;;;;;;;;;30.10;99.90;;;;;;5093267;28;20440;-65
2022/06/30 09:50:03;;;;;;;;;;;29.80;99.90;;;;;;5093253;28;19912;-65
2022/06/30 09:52:29;;;;;;;;;;;29.80;99.90;;;;;;5093792;28;20368;-65
2022/06/30 09:55:06;;;;;;;;;;;29.90;99.90;;;;;;5075293;28;19923;-65
2022/06/30 09:57:36;;;;;;;;;;;30.10;99.90;;;;;;5093498;28;20268;-66
2022/06/30 10:00:04;;;;;;;;;;;30.30;99.10;;;;;;5093244;28;19931;-65
2022/06/30 10:02:31;;;;;;;;;;;30.30;99.60;;;;;;5093357;28;19961;-65
2022/06/30 10:04:57;;;;;;;;;;;30.30;99.40;;;;;;5089641;28;19924;-65
2022/06/30 10:07:23;;;;;;;;;;;30.30;99.40;;;;;;5069181;28;19916;-65
2022/06/30 10:09:49;;;;;;;;;;;30.50;99.60;;;;;;5057081;28;20009;-65
2022/06/30 10:12:16;;;;;;;;;;;30.90;98.80;;;;;;5058218;28;19915;-66
2022/06/30 10:14:42;;;;;;;;;;;30.80;98.50;;;;;;5072746;28;19941;-65
2022/06/30 10:17:08;;;;;;;;;;;30.70;97.90;;;;;;5072183;28;19936;-65
2022/06/30 10:19:34;;;;;;;;;;;30.70;98.20;;;;;;5072495;28;20024;-65
2022/06/30 10:22:00;;;;;;;;;;;30.80;98.20;;;;;;5072968;28;20760;-65
2022/06/30 10:24:25;;;;;;;;;;;31.00;98.20;;;;;;5054586;28;19971;-68
2022/06/30 10:29:35;;;;;;;;;;;31.50;97.10;;;;;;5073213;28;20009;-73
2022/06/30 10:32:11;;;;;;;;;;;31.10;98.00;;;;;;5072905;28;19924;-72
2022/06/30 10:34:40;;;;;;;;;;;30.90;98.10;;;;;;5072667;28;19923;-72
2022/06/30 10:37:14;;;;;;;;;;;31.20;98.70;;;;;;5072233;28;19952;-72
2022/06/30 10:39:57;;;;;;;;;;;31.80;98.20;;;;;;5072601;28;19926;-72
2022/06/30 10:42:41;;;;;;;;;;;32.30;98.00;;;;;;5072528;28;19916;-68
2022/06/30 10:45:26;;;;;;;;;;;32.70;96.70;;;;;;5072133;28;20388;-65
2022/06/30 10:48:08;;;;;;;;;;;32.80;96.30;;;;;;5071679;28;19917;-65
2022/06/30 10:50:33;;;;;;;;;;;32.70;95.40;;;;;;5072027;28;19966;-66
2022/06/30 10:52:59;;;;;;;;;;;32.60;95.20;;;;;;5072088;28;19917;-66
2022/06/30 10:55:24;;;;;;;;;;;32.60;95.70;;;;;;5072237;28;19954;-65
2022/06/30 10:58:06;;;;;;;;;;;32.50;95.10;;;;;;5072156;28;20337;-66
2022/06/30 11:00:48;;;;;;;;;;;32.40;95.70;;;;;;5053862;28;20255;-66
2022/06/30 11:03:34;;;;;;;;;;;32.50;95.60;;;;;;5071774;28;19923;-66
2022/06/30 11:06:02;;;;;;;;;;;32.60;95.40;;;;;;5061276;28;19920;-66
2022/06/30 11:08:46;;;;;;;;;;;32.70;94.80;;;;;;5067001;28;19924;-66
2022/06/30 11:11:24;;;;;;;;;;;32.90;94.70;;;;;;5052247;28;20503;-66
2022/06/30 11:13:50;;;;;;;;;;;33.00;94.10;;;;;;5069751;28;19912;-66
2022/06/30 11:16:19;;;;;;;;;;;33.00;93.90;;;;;;5071842;28;20296;-66
2022/06/30 11:18:45;;;;;;;;;;;32.90;94.10;;;;;;5071849;28;19912;-66
2022/06/30 11:21:11;;;;;;;;;;;32.90;93.70;;;;;;5072044;28;19949;-66
2022/06/30 11:23:40;;;;;;;;;;;32.90;93.60;;;;;;5071696;28;20007;-65
2022/06/30 11:28:51;;;;;;;;;;;33.00;94.20;;;;;;5071735;28;19935;-66
2022/06/30 11:31:22;;;;;;;;;;;33.00;93.20;;;;;;5071142;28;19913;-66
2022/06/30 11:33:55;;;;;;;;;;;33.00;93.40;;;;;;5053209;28;19912;-65
2022/06/30 11:36:21;;;;;;;;;;;33.00;93.40;;;;;;5071508;28;19912;-66
2022/06/30 11:38:54;;;;;;;;;;;32.90;93.60;;;;;;5071640;28;19909;-66
2022/06/30 11:44:11;;;;;;;;;;;32.40;93.60;;;;;;5071679;28;19970;-66
2022/06/30 11:46:46;;;;;;;;;;;32.20;93.70;;;;;;5071718;28;19912;-65
2022/06/30 11:49:12;;;;;;;;;;;32.00;93.40;;;;;;5071430;28;19912;-65
2022/06/30 11:51:37;;;;;;;;;;;32.10;93.00;;;;;;5071661;28;19934;-65
2022/06/30 11:54:04;;;;;;;;;;;32.00;93.30;;;;;;5071087;28;19958;-66
2022/06/30 11:56:43;;;;;;;;;;;31.50;93.00;;;;;;5071330;28;19999;-65
2022/06/30 11:59:08;;;;;;;;;;;31.10;93.90;;;;;;5071205;28;20007;-65
2022/06/30 12:01:34;;;;;;;;;;;30.80;94.50;;;;;;5071106;28;19948;-65
2022/06/30 12:04:11;;;;;;;;;;;30.50;95.00;;;;;;5070742;28;19916;-65
2022/06/30 12:06:37;;;;;;;;;;;30.30;96.30;;;;;;5052845;28;20353;-65
2022/06/30 12:09:02;;;;;;;;;;;30.20;96.60;;;;;;5061131;28;19952;-65
2022/06/30 12:11:30;;;;;;;;;;;30.30;96.40;;;;;;5051098;28;20339;-65
2022/06/30 12:13:55;;;;;;;;;;;30.40;95.80;;;;;;5069543;28;19917;-65
2022/06/30 12:16:21;;;;;;;;;;;30.60;95.40;;;;;;5070485;28;20297;-65
2022/06/30 12:18:46;;;;;;;;;;;30.90;95.30;;;;;;5070671;28;19912;-65
2022/06/30 12:21:12;;;;;;;;;;;31.00;94.70;;;;;;5070825;28;19916;-65
2022/06/30 12:23:39;;;;;;;;;;;31.20;95.00;;;;;;5070439;28;19990;-65
2022/06/30 12:26:06;;;;;;;;;;;31.20;94.80;;;;;;5070601;28;19912;-65
2022/06/30 12:28:48;;;;;;;;;;;31.20;94.30;;;;;;5052408;28;19936;-65
2022/06/30 12:31:23;;;;;;;;;;;31.30;93.80;;;;;;5070794;28;20301;-65
2022/06/30 12:33:50;;;;;;;;;;;31.20;93.30;;;;;;5070323;28;20026;-65
2022/06/30 12:36:15;;;;;;;;;;;31.10;93.30;;;;;;5070321;28;20323;-65
2022/06/30 12:38:41;;;;;;;;;;;30.90;92.50;;;;;;5070432;28;19961;-65
2022/06/30 12:41:07;;;;;;;;;;;30.80;93.00;;;;;;5070599;28;19961;-65
2022/06/30 12:43:41;;;;;;;;;;;30.70;92.50;;;;;;5072703;28;19923;-65
2022/06/30 12:46:09;;;;;;;;;;;30.60;91.80;;;;;;5074720;28;20236;-65
2022/06/30 12:48:43;;;;;;;;;;;30.50;92.00;;;;;;5074355;28;19936;-65
2022/06/30 12:51:10;;;;;;;;;;;30.20;92.20;;;;;;5074196;28;19916;-65
2022/06/30 12:53:36;;;;;;;;;;;30.10;92.70;;;;;;5074025;28;19923;-65
2022/06/30 12:56:17;;;;;;;;;;;29.60;92.40;;;;;;5074028;28;19913;-65
2022/06/30 12:58:43;;;;;;;;;;;29.30;93.00;;;;;;5074069;28;20066;-65
2022/06/30 13:01:08;;;;;;;;;;;29.10;93.80;;;;;;5055879;28;20391;-65
2022/06/30 13:03:45;;;;;;;;;;;29.10;94.40;;;;;;5073885;28;19965;-64
2022/06/30 13:06:11;;;;;;;;;;;29.10;94.40;;;;;;5073851;28;20117;-65
2022/06/30 13:08:36;;;;;;;;;;;29.20;94.70;;;;;;5073590;28;19916;-65
2022/06/30 13:11:08;;;;;;;;;;;29.20;95.30;;;;;;5073678;28;20375;-65
2022/06/30 13:13:33;;;;;;;;;;;29.30;95.00;;;;;;5058159;28;19920;-65
2022/06/30 13:15:59;;;;;;;;;;;29.30;94.90;;;;;;5053771;28;19912;-65
2022/06/30 13:18:24;;;;;;;;;;;29.30;94.30;;;;;;5053519;28;19920;-65
2022/06/30 13:20:50;;;;;;;;;;;29.30;94.30;;;;;;5053747;28;19945;-65
2022/06/30 13:23:15;;;;;;;;;;;29.10;94.30;;;;;;5053651;28;19917;-64
2022/06/30 13:25:41;;;;;;;;;;;28.90;94.30;;;;;;5035361;28;19919;-65
2022/06/30 13:28:06;;;;;;;;;;;28.90;95.00;;;;;;5053688;28;19912;-65
2022/06/30 13:30:32;;;;;;;;;;;28.90;94.70;;;;;;5053861;28;19913;-64
2022/06/30 13:32:57;;;;;;;;;;;28.90;94.80;;;;;;5053849;28;20097;-65
2022/06/30 13:35:23;;;;;;;;;;;28.90;94.80;;;;;;5053496;28;20352;-64
2022/06/30 13:37:48;;;;;;;;;;;28.90;94.00;;;;;;5053338;28;19933;-65
2022/06/30 13:40:14;;;;;;;;;;;28.90;94.10;;;;;;5035227;28;19909;-65
2022/06/30 13:42:39;;;;;;;;;;;28.90;94.60;;;;;;5053699;28;19923;-65
2022/06/30 13:45:05;;;;;;;;;;;28.80;94.10;;;;;;5053553;28;19909;-64
2022/06/30 13:47:31;;;;;;;;;;;28.90;94.50;;;;;;5053778;28;19947;-65
2022/06/30 13:49:58;;;;;;;;;;;28.90;94.90;;;;;;5053229;28;19917;-65
2022/06/30 13:52:23;;;;;;;;;;;29.00;95.10;;;;;;5053560;28;19939;-65
2022/06/30 13:54:49;;;;;;;;;;;29.00;96.00;;;;;;5052515;28;20388;-65
2022/06/30 13:57:14;;;;;;;;;;;28.90;96.30;;;;;;5053866;28;19948;-65
2022/06/30 13:59:40;;;;;;;;;;;28.60;97.00;;;;;;5053630;28;19974;-65
2022/06/30 14:02:06;;;;;;;;;;;28.60;97.80;;;;;;5053426;28;19971;-65
2022/06/30 14:04:31;;;;;;;;;;;28.40;98.00;;;;;;5052877;28;19917;-65
2022/06/30 14:06:57;;;;;;;;;;;28.40;97.40;;;;;;5071464;28;19916;-65
2022/06/30 14:09:22;;;;;;;;;;;28.20;97.20;;;;;;5072733;28;19925;-64
2022/06/30 14:11:48;;;;;;;;;;;28.10;97.50;;;;;;5072014;28;20298;-65
2022/06/30 14:14:13;;;;;;;;;;;28.00;97.50;;;;;;5052393;28;19913;-64
2022/06/30 14:16:39;;;;;;;;;;;27.90;97.30;;;;;;5052713;28;19912;-65
2022/06/30 14:19:04;;;;;;;;;;;27.80;97.50;;;;;;5052692;28;19959;-64
2022/06/30 14:21:31;;;;;;;;;;;27.80;97.80;;;;;;5052708;28;20306;-65
2022/06/30 14:23:57;;;;;;;;;;;27.80;98.20;;;;;;5052253;28;19924;-65
2022/06/30 14:26:22;;;;;;;;;;;27.70;98.40;;;;;;5052386;28;19917;-65
2022/06/30 14:28:48;;;;;;;;;;;27.70;98.70;;;;;;5052380;28;19975;-65
2022/06/30 14:31:13;;;;;;;;;;;27.50;98.30;;;;;;5052356;28;20058;-65
2022/06/30 14:33:39;;;;;;;;;;;27.40;98.70;;;;;;5034358;28;20299;-65